sensor_id;sensor_type;location;lat;lon;timestamp;P1;durP1;ratioP1;P2;durP2;ratioP2
13250;SDS011;6692;50.710;7.180;2022-07-29T00:01:56;64.57;;;62.20;;
13250;SDS011;6692;50.710;7.180;2022-07-29T00:03:56;58.80;;;56.60;;
13250;SDS011;6692;50.710;7.180;2022-07-29T00:05:57;69.93;;;67.40;;
13250;SDS011;6692;50.710;7.180;2022-07-29T00:07:58;72.27;;;69.67;;
13250;SDS011;6692;50.710;7.180;2022-07-29T00:10:00;71.07;;;68.57;;
13250;SDS011;6692;50.710;7.180;2022-07-29T00:12:00;68.70;;;66.17;;
13250;SDS011;6692;50.710;7.180;2022-07-29T00:14:01;76.23;;;73.37;;
13250;SDS011;6692;50.710;7.180;2022-07-29T00:16:02;76.77;;;73.97;;
13250;SDS011;6692;50.710;7.180;2022-07-29T00:18:03;63.27;;;60.97;;
13250;SDS011;6692;50.710;7.180;2022-07-29T00:20:04;68.97;;;66.37;;
13250;SDS011;6692;50.710;7.180;2022-07-29T00:22:06;74.63;;;71.93;;
13250;SDS011;6692;50.710;7.180;2022-07-29T00:24:07;73.67;;;70.90;;
13250;SDS011;6692;50.710;7.180;2022-07-29T00:26:08;79.53;;;76.63;;
13250;SDS011;6692;50.710;7.180;2022-07-29T00:28:08;88.57;;;85.40;;
13250;SDS011;6692;50.710;7.180;2022-07-29T00:30:09;78.87;;;76.07;;
13250;SDS011;6692;50.710;7.180;2022-07-29T00:32:10;81.20;;;78.30;;
13250;SDS011;6692;50.710;7.180;2022-07-29T00:34:11;81.97;;;78.87;;
13250;SDS011;6692;50.710;7.180;2022-07-29T00:36:31;70.93;;;68.33;;
13250;SDS011;6692;50.710;7.180;2022-07-29T00:38:32;84.00;;;81.00;;
13250;SDS011;6692;50.710;7.180;2022-07-29T00:40:34;76.43;;;73.67;;
13250;SDS011;6692;50.710;7.180;2022-07-29T00:42:41;73.43;;;70.80;;
13250;SDS011;6692;50.710;7.180;2022-07-29T00:44:42;72.07;;;69.40;;
13250;SDS011;6692;50.710;7.180;2022-07-29T00:46:43;78.27;;;75.47;;
13250;SDS011;6692;50.710;7.180;2022-07-29T00:48:44;78.07;;;75.27;;
13250;SDS011;6692;50.710;7.180;2022-07-29T00:50:45;77.80;;;74.97;;
13250;SDS011;6692;50.710;7.180;2022-07-29T00:52:47;78.10;;;75.30;;
13250;SDS011;6692;50.710;7.180;2022-07-29T00:54:48;79.87;;;76.97;;
13250;SDS011;6692;50.710;7.180;2022-07-29T00:56:49;75.80;;;73.00;;
13250;SDS011;6692;50.710;7.180;2022-07-29T00:58:49;79.03;;;76.23;;
13250;SDS011;6692;50.710;7.180;2022-07-29T01:00:50;83.87;;;80.87;;
13250;SDS011;6692;50.710;7.180;2022-07-29T01:02:51;84.10;;;81.10;;
13250;SDS011;6692;50.710;7.180;2022-07-29T01:04:52;88.77;;;85.57;;
13250;SDS011;6692;50.710;7.180;2022-07-29T01:06:53;92.07;;;88.77;;
13250;SDS011;6692;50.710;7.180;2022-07-29T01:08:54;84.17;;;81.07;;
13250;SDS011;6692;50.710;7.180;2022-07-29T01:10:54;91.93;;;88.67;;
13250;SDS011;6692;50.710;7.180;2022-07-29T01:12:56;93.20;;;89.80;;
13250;SDS011;6692;50.710;7.180;2022-07-29T01:14:56;91.60;;;88.40;;
13250;SDS011;6692;50.710;7.180;2022-07-29T01:16:59;85.97;;;82.90;;
13250;SDS011;6692;50.710;7.180;2022-07-29T01:19:00;87.60;;;84.50;;
13250;SDS011;6692;50.710;7.180;2022-07-29T01:21:15;88.53;;;85.33;;
13250;SDS011;6692;50.710;7.180;2022-07-29T01:23:25;74.93;;;72.20;;
13250;SDS011;6692;50.710;7.180;2022-07-29T01:26:01;84.53;;;81.53;;
13250;SDS011;6692;50.710;7.180;2022-07-29T01:28:08;73.90;;;71.23;;
13250;SDS011;6692;50.710;7.180;2022-07-29T01:30:05;75.07;;;72.37;;
13250;SDS011;6692;50.710;7.180;2022-07-29T01:32:08;82.73;;;79.77;;
13250;SDS011;6692;50.710;7.180;2022-07-29T01:34:11;83.90;;;80.83;;
13250;SDS011;6692;50.710;7.180;2022-07-29T01:36:11;82.37;;;79.43;;
13250;SDS011;6692;50.710;7.180;2022-07-29T01:38:17;85.43;;;82.33;;
13250;SDS011;6692;50.710;7.180;2022-07-29T01:40:20;82.43;;;79.33;;
13250;SDS011;6692;50.710;7.180;2022-07-29T01:44:34;75.37;;;72.63;;
13250;SDS011;6692;50.710;7.180;2022-07-29T01:46:34;77.00;;;74.10;;
13250;SDS011;6692;50.710;7.180;2022-07-29T01:48:39;82.20;;;79.17;;
13250;SDS011;6692;50.710;7.180;2022-07-29T01:53:06;68.83;;;66.27;;
13250;SDS011;6692;50.710;7.180;2022-07-29T01:55:13;81.63;;;78.67;;
13250;SDS011;6692;50.710;7.180;2022-07-29T01:57:15;84.00;;;81.03;;
13250;SDS011;6692;50.710;7.180;2022-07-29T01:59:16;85.60;;;82.60;;
13250;SDS011;6692;50.710;7.180;2022-07-29T02:01:16;92.67;;;89.37;;
13250;SDS011;6692;50.710;7.180;2022-07-29T02:03:17;92.53;;;89.17;;
13250;SDS011;6692;50.710;7.180;2022-07-29T02:05:20;93.17;;;89.80;;
13250;SDS011;6692;50.710;7.180;2022-07-29T02:07:20;84.00;;;80.90;;
13250;SDS011;6692;50.710;7.180;2022-07-29T02:09:21;82.17;;;79.20;;
13250;SDS011;6692;50.710;7.180;2022-07-29T02:11:21;81.60;;;78.60;;
13250;SDS011;6692;50.710;7.180;2022-07-29T02:13:22;81.20;;;78.27;;
13250;SDS011;6692;50.710;7.180;2022-07-29T02:15:24;85.93;;;82.83;;
13250;SDS011;6692;50.710;7.180;2022-07-29T02:17:26;83.77;;;80.67;;
13250;SDS011;6692;50.710;7.180;2022-07-29T02:19:25;86.70;;;83.50;;
13250;SDS011;6692;50.710;7.180;2022-07-29T02:21:25;86.60;;;83.50;;
13250;SDS011;6692;50.710;7.180;2022-07-29T02:23:26;86.40;;;83.30;;
13250;SDS011;6692;50.710;7.180;2022-07-29T02:25:28;90.30;;;87.10;;
13250;SDS011;6692;50.710;7.180;2022-07-29T02:27:29;80.00;;;77.10;;
13250;SDS011;6692;50.710;7.180;2022-07-29T02:29:30;77.60;;;74.70;;
13250;SDS011;6692;50.710;7.180;2022-07-29T02:31:32;71.87;;;69.27;;
13250;SDS011;6692;50.710;7.180;2022-07-29T02:33:31;74.20;;;71.53;;
13250;SDS011;6692;50.710;7.180;2022-07-29T02:35:32;72.80;;;70.10;;
13250;SDS011;6692;50.710;7.180;2022-07-29T02:37:33;66.93;;;64.50;;
13250;SDS011;6692;50.710;7.180;2022-07-29T02:39:33;67.43;;;65.03;;
13250;SDS011;6692;50.710;7.180;2022-07-29T02:41:37;66.23;;;63.83;;
13250;SDS011;6692;50.710;7.180;2022-07-29T02:43:35;60.50;;;58.17;;
13250;SDS011;6692;50.710;7.180;2022-07-29T02:45:36;62.50;;;60.20;;
13250;SDS011;6692;50.710;7.180;2022-07-29T02:47:39;66.93;;;64.43;;
13250;SDS011;6692;50.710;7.180;2022-07-29T02:49:41;62.63;;;60.23;;
13250;SDS011;6692;50.710;7.180;2022-07-29T02:51:43;63.40;;;61.10;;
13250;SDS011;6692;50.710;7.180;2022-07-29T02:53:43;62.87;;;60.57;;
13250;SDS011;6692;50.710;7.180;2022-07-29T02:55:45;52.87;;;50.87;;
13250;SDS011;6692;50.710;7.180;2022-07-29T02:57:47;57.57;;;55.43;;
13250;SDS011;6692;50.710;7.180;2022-07-29T02:59:48;58.07;;;55.97;;
13250;SDS011;6692;50.710;7.180;2022-07-29T03:01:47;57.00;;;54.87;;
13250;SDS011;6692;50.710;7.180;2022-07-29T03:03:49;55.50;;;53.33;;
13250;SDS011;6692;50.710;7.180;2022-07-29T03:05:49;53.73;;;51.70;;
13250;SDS011;6692;50.710;7.180;2022-07-29T03:07:51;49.67;;;47.83;;
13250;SDS011;6692;50.710;7.180;2022-07-29T03:09:50;49.17;;;47.13;;
13250;SDS011;6692;50.710;7.180;2022-07-29T03:11:50;50.73;;;48.80;;
13250;SDS011;6692;50.710;7.180;2022-07-29T03:13:51;49.20;;;47.23;;
13250;SDS011;6692;50.710;7.180;2022-07-29T03:15:52;51.23;;;49.33;;
13250;SDS011;6692;50.710;7.180;2022-07-29T03:17:53;48.50;;;46.60;;
13250;SDS011;6692;50.710;7.180;2022-07-29T03:19:54;43.80;;;42.13;;
13250;SDS011;6692;50.710;7.180;2022-07-29T03:21:56;47.67;;;45.93;;
13250;SDS011;6692;50.710;7.180;2022-07-29T03:23:56;47.47;;;45.60;;
13250;SDS011;6692;50.710;7.180;2022-07-29T03:25:57;56.57;;;54.37;;
13250;SDS011;6692;50.710;7.180;2022-07-29T03:27:57;42.97;;;41.40;;
13250;SDS011;6692;50.710;7.180;2022-07-29T03:29:58;47.30;;;45.53;;
13250;SDS011;6692;50.710;7.180;2022-07-29T03:31:58;43.87;;;42.23;;
13250;SDS011;6692;50.710;7.180;2022-07-29T03:33:59;41.53;;;39.93;;
13250;SDS011;6692;50.710;7.180;2022-07-29T03:36:00;42.80;;;41.17;;
13250;SDS011;6692;50.710;7.180;2022-07-29T03:38:00;35.90;;;34.57;;
13250;SDS011;6692;50.710;7.180;2022-07-29T03:40:03;33.33;;;32.07;;
13250;SDS011;6692;50.710;7.180;2022-07-29T03:42:03;35.17;;;33.73;;
13250;SDS011;6692;50.710;7.180;2022-07-29T03:44:05;34.47;;;33.20;;
13250;SDS011;6692;50.710;7.180;2022-07-29T03:46:06;33.27;;;31.93;;
13250;SDS011;6692;50.710;7.180;2022-07-29T03:48:06;33.40;;;32.17;;
13250;SDS011;6692;50.710;7.180;2022-07-29T03:50:06;36.97;;;35.57;;
13250;SDS011;6692;50.710;7.180;2022-07-29T03:52:07;38.53;;;37.07;;
13250;SDS011;6692;50.710;7.180;2022-07-29T03:54:08;38.43;;;36.93;;
13250;SDS011;6692;50.710;7.180;2022-07-29T03:56:10;40.77;;;39.20;;
13250;SDS011;6692;50.710;7.180;2022-07-29T03:58:11;41.97;;;40.37;;
13250;SDS011;6692;50.710;7.180;2022-07-29T04:00:11;39.70;;;37.97;;
13250;SDS011;6692;50.710;7.180;2022-07-29T04:02:12;41.30;;;39.57;;
13250;SDS011;6692;50.710;7.180;2022-07-29T04:04:13;38.23;;;36.77;;
13250;SDS011;6692;50.710;7.180;2022-07-29T04:06:14;39.13;;;37.53;;
13250;SDS011;6692;50.710;7.180;2022-07-29T04:08:15;37.50;;;36.07;;
13250;SDS011;6692;50.710;7.180;2022-07-29T04:10:16;40.77;;;39.20;;
13250;SDS011;6692;50.710;7.180;2022-07-29T04:12:17;45.30;;;43.43;;
13250;SDS011;6692;50.710;7.180;2022-07-29T04:14:17;39.10;;;37.53;;
13250;SDS011;6692;50.710;7.180;2022-07-29T04:16:19;38.77;;;37.23;;
13250;SDS011;6692;50.710;7.180;2022-07-29T04:18:20;40.30;;;38.67;;
13250;SDS011;6692;50.710;7.180;2022-07-29T04:20:21;41.77;;;40.13;;
13250;SDS011;6692;50.710;7.180;2022-07-29T04:22:22;42.83;;;41.20;;
13250;SDS011;6692;50.710;7.180;2022-07-29T04:24:23;42.13;;;40.50;;
13250;SDS011;6692;50.710;7.180;2022-07-29T04:26:23;42.23;;;40.63;;
13250;SDS011;6692;50.710;7.180;2022-07-29T04:28:25;43.30;;;41.63;;
13250;SDS011;6692;50.710;7.180;2022-07-29T04:30:25;45.00;;;43.33;;
13250;SDS011;6692;50.710;7.180;2022-07-29T04:32:27;44.83;;;43.17;;
13250;SDS011;6692;50.710;7.180;2022-07-29T04:34:28;41.53;;;39.87;;
13250;SDS011;6692;50.710;7.180;2022-07-29T04:36:29;43.23;;;41.57;;
13250;SDS011;6692;50.710;7.180;2022-07-29T04:38:29;42.10;;;40.53;;
13250;SDS011;6692;50.710;7.180;2022-07-29T04:40:30;40.87;;;39.27;;
13250;SDS011;6692;50.710;7.180;2022-07-29T04:42:31;43.57;;;41.83;;
13250;SDS011;6692;50.710;7.180;2022-07-29T04:44:31;44.43;;;42.73;;
13250;SDS011;6692;50.710;7.180;2022-07-29T04:46:32;40.83;;;39.17;;
13250;SDS011;6692;50.710;7.180;2022-07-29T04:48:33;45.93;;;44.13;;
13250;SDS011;6692;50.710;7.180;2022-07-29T04:50:33;41.73;;;40.17;;
13250;SDS011;6692;50.710;7.180;2022-07-29T04:52:34;40.97;;;39.40;;
13250;SDS011;6692;50.710;7.180;2022-07-29T04:54:35;41.73;;;40.10;;
13250;SDS011;6692;50.710;7.180;2022-07-29T04:56:36;44.53;;;42.87;;
13250;SDS011;6692;50.710;7.180;2022-07-29T04:58:36;49.63;;;47.77;;
13250;SDS011;6692;50.710;7.180;2022-07-29T05:00:37;48.67;;;46.83;;
13250;SDS011;6692;50.710;7.180;2022-07-29T05:02:38;50.67;;;48.73;;
13250;SDS011;6692;50.710;7.180;2022-07-29T05:04:38;50.10;;;48.17;;
13250;SDS011;6692;50.710;7.180;2022-07-29T05:06:40;52.50;;;50.53;;
13250;SDS011;6692;50.710;7.180;2022-07-29T05:08:41;51.80;;;49.73;;
13250;SDS011;6692;50.710;7.180;2022-07-29T05:10:42;54.97;;;52.77;;
13250;SDS011;6692;50.710;7.180;2022-07-29T05:12:42;56.90;;;54.67;;
13250;SDS011;6692;50.710;7.180;2022-07-29T05:14:43;55.67;;;53.60;;
13250;SDS011;6692;50.710;7.180;2022-07-29T05:16:44;59.43;;;57.23;;
13250;SDS011;6692;50.710;7.180;2022-07-29T05:18:46;60.70;;;58.50;;
13250;SDS011;6692;50.710;7.180;2022-07-29T05:20:47;60.60;;;58.30;;
13250;SDS011;6692;50.710;7.180;2022-07-29T05:22:48;62.73;;;60.30;;
13250;SDS011;6692;50.710;7.180;2022-07-29T05:24:49;60.70;;;58.47;;
13250;SDS011;6692;50.710;7.180;2022-07-29T05:26:50;64.80;;;62.23;;
13250;SDS011;6692;50.710;7.180;2022-07-29T05:28:50;64.13;;;61.70;;
13250;SDS011;6692;50.710;7.180;2022-07-29T05:30:51;65.57;;;63.03;;
13250;SDS011;6692;50.710;7.180;2022-07-29T05:32:52;66.80;;;64.33;;
13250;SDS011;6692;50.710;7.180;2022-07-29T05:34:52;71.17;;;68.47;;
13250;SDS011;6692;50.710;7.180;2022-07-29T05:36:53;72.13;;;69.43;;
13250;SDS011;6692;50.710;7.180;2022-07-29T05:38:54;75.27;;;72.57;;
13250;SDS011;6692;50.710;7.180;2022-07-29T05:40:56;69.03;;;66.43;;
13250;SDS011;6692;50.710;7.180;2022-07-29T05:42:55;88.83;;;85.63;;
13250;SDS011;6692;50.710;7.180;2022-07-29T05:44:56;80.70;;;77.60;;
13250;SDS011;6692;50.710;7.180;2022-07-29T05:46:56;68.27;;;65.70;;
13250;SDS011;6692;50.710;7.180;2022-07-29T05:48:57;57.30;;;55.10;;
13250;SDS011;6692;50.710;7.180;2022-07-29T05:50:58;53.80;;;51.70;;
13250;SDS011;6692;50.710;7.180;2022-07-29T05:52:58;60.23;;;57.93;;
13250;SDS011;6692;50.710;7.180;2022-07-29T05:55:00;27.63;;;26.33;;
13250;SDS011;6692;50.710;7.180;2022-07-29T05:57:01;16.00;;;14.90;;
13250;SDS011;6692;50.710;7.180;2022-07-29T05:59:02;22.63;;;21.23;;
13250;SDS011;6692;50.710;7.180;2022-07-29T06:01:02;18.50;;;17.37;;
13250;SDS011;6692;50.710;7.180;2022-07-29T06:03:03;19.13;;;18.17;;
13250;SDS011;6692;50.710;7.180;2022-07-29T06:05:05;25.73;;;24.60;;
13250;SDS011;6692;50.710;7.180;2022-07-29T06:07:06;23.37;;;22.30;;
13250;SDS011;6692;50.710;7.180;2022-07-29T06:09:06;22.17;;;21.00;;
13250;SDS011;6692;50.710;7.180;2022-07-29T06:11:07;14.03;;;13.23;;
13250;SDS011;6692;50.710;7.180;2022-07-29T06:13:07;19.43;;;18.43;;
13250;SDS011;6692;50.710;7.180;2022-07-29T06:15:08;22.47;;;21.43;;
13250;SDS011;6692;50.710;7.180;2022-07-29T06:17:09;22.57;;;21.50;;
13250;SDS011;6692;50.710;7.180;2022-07-29T06:19:10;12.83;;;11.67;;
13250;SDS011;6692;50.710;7.180;2022-07-29T06:21:11;13.23;;;12.47;;
13250;SDS011;6692;50.710;7.180;2022-07-29T06:23:11;10.40;;;9.30;;
13250;SDS011;6692;50.710;7.180;2022-07-29T06:25:12;14.20;;;13.10;;
13250;SDS011;6692;50.710;7.180;2022-07-29T06:27:13;14.40;;;13.47;;
13250;SDS011;6692;50.710;7.180;2022-07-29T06:29:13;12.23;;;11.13;;
13250;SDS011;6692;50.710;7.180;2022-07-29T06:31:14;11.73;;;10.93;;
13250;SDS011;6692;50.710;7.180;2022-07-29T06:33:16;16.00;;;15.00;;
13250;SDS011;6692;50.710;7.180;2022-07-29T06:35:17;11.40;;;10.70;;
13250;SDS011;6692;50.710;7.180;2022-07-29T06:37:18;10.60;;;9.90;;
13250;SDS011;6692;50.710;7.180;2022-07-29T06:39:18;13.23;;;12.50;;
13250;SDS011;6692;50.710;7.180;2022-07-29T06:41:19;9.77;;;9.07;;
13250;SDS011;6692;50.710;7.180;2022-07-29T06:43:19;9.07;;;8.30;;
13250;SDS011;6692;50.710;7.180;2022-07-29T06:45:20;9.80;;;9.07;;
13250;SDS011;6692;50.710;7.180;2022-07-29T06:47:21;9.50;;;8.60;;
13250;SDS011;6692;50.710;7.180;2022-07-29T06:49:22;8.07;;;7.50;;
13250;SDS011;6692;50.710;7.180;2022-07-29T06:51:22;9.10;;;6.87;;
13250;SDS011;6692;50.710;7.180;2022-07-29T06:53:23;9.30;;;8.40;;
13250;SDS011;6692;50.710;7.180;2022-07-29T06:55:24;8.63;;;7.90;;
13250;SDS011;6692;50.710;7.180;2022-07-29T06:57:26;9.73;;;9.03;;
13250;SDS011;6692;50.710;7.180;2022-07-29T06:59:26;11.23;;;10.53;;
13250;SDS011;6692;50.710;7.180;2022-07-29T07:01:27;9.63;;;8.73;;
13250;SDS011;6692;50.710;7.180;2022-07-29T07:03:28;9.50;;;8.83;;
13250;SDS011;6692;50.710;7.180;2022-07-29T07:05:28;8.70;;;7.97;;
13250;SDS011;6692;50.710;7.180;2022-07-29T07:07:29;12.63;;;11.83;;
13250;SDS011;6692;50.710;7.180;2022-07-29T07:09:29;12.87;;;12.07;;
13250;SDS011;6692;50.710;7.180;2022-07-29T07:11:31;12.27;;;11.67;;
13250;SDS011;6692;50.710;7.180;2022-07-29T07:13:31;19.30;;;18.33;;
13250;SDS011;6692;50.710;7.180;2022-07-29T07:15:32;12.20;;;11.53;;
13250;SDS011;6692;50.710;7.180;2022-07-29T07:17:33;17.03;;;16.27;;
13250;SDS011;6692;50.710;7.180;2022-07-29T07:19:34;21.20;;;20.27;;
13250;SDS011;6692;50.710;7.180;2022-07-29T07:21:35;21.17;;;20.23;;
13250;SDS011;6692;50.710;7.180;2022-07-29T07:23:36;23.07;;;22.07;;
13250;SDS011;6692;50.710;7.180;2022-07-29T07:25:37;23.03;;;22.07;;
13250;SDS011;6692;50.710;7.180;2022-07-29T07:27:39;24.33;;;23.23;;
13250;SDS011;6692;50.710;7.180;2022-07-29T07:29:39;26.13;;;24.97;;
13250;SDS011;6692;50.710;7.180;2022-07-29T07:31:40;30.20;;;28.97;;
13250;SDS011;6692;50.710;7.180;2022-07-29T07:33:41;21.17;;;20.20;;
13250;SDS011;6692;50.710;7.180;2022-07-29T07:35:41;33.13;;;31.70;;
13250;SDS011;6692;50.710;7.180;2022-07-29T07:37:43;27.17;;;25.93;;
13250;SDS011;6692;50.710;7.180;2022-07-29T07:39:43;29.23;;;27.97;;
13250;SDS011;6692;50.710;7.180;2022-07-29T07:41:45;24.60;;;23.63;;
13250;SDS011;6692;50.710;7.180;2022-07-29T07:43:46;34.13;;;32.73;;
13250;SDS011;6692;50.710;7.180;2022-07-29T07:45:47;21.83;;;20.97;;
13250;SDS011;6692;50.710;7.180;2022-07-29T07:47:47;36.77;;;35.23;;
13250;SDS011;6692;50.710;7.180;2022-07-29T07:49:49;41.97;;;40.33;;
13250;SDS011;6692;50.710;7.180;2022-07-29T07:51:50;45.27;;;43.37;;
13250;SDS011;6692;50.710;7.180;2022-07-29T07:53:51;45.20;;;43.50;;
13250;SDS011;6692;50.710;7.180;2022-07-29T07:55:52;51.57;;;49.57;;
13250;SDS011;6692;50.710;7.180;2022-07-29T07:57:53;51.63;;;49.63;;
13250;SDS011;6692;50.710;7.180;2022-07-29T07:59:53;45.83;;;44.10;;
13250;SDS011;6692;50.710;7.180;2022-07-29T08:01:54;37.40;;;35.97;;
13250;SDS011;6692;50.710;7.180;2022-07-29T08:03:54;46.43;;;44.73;;
13250;SDS011;6692;50.710;7.180;2022-07-29T08:05:55;22.33;;;21.37;;
13250;SDS011;6692;50.710;7.180;2022-07-29T08:07:55;6.83;;;6.40;;
13250;SDS011;6692;50.710;7.180;2022-07-29T08:09:56;9.07;;;8.53;;
13250;SDS011;6692;50.710;7.180;2022-07-29T08:11:57;6.57;;;5.00;;
13250;SDS011;6692;50.710;7.180;2022-07-29T08:13:57;5.23;;;4.73;;
13250;SDS011;6692;50.710;7.180;2022-07-29T08:15:59;7.90;;;5.50;;
13250;SDS011;6692;50.710;7.180;2022-07-29T08:17:59;6.47;;;5.93;;
13250;SDS011;6692;50.710;7.180;2022-07-29T08:20:01;7.23;;;6.53;;
13250;SDS011;6692;50.710;7.180;2022-07-29T08:22:01;8.30;;;7.80;;
13250;SDS011;6692;50.710;7.180;2022-07-29T08:24:02;8.83;;;8.23;;
13250;SDS011;6692;50.710;7.180;2022-07-29T08:26:09;8.73;;;8.27;;
13250;SDS011;6692;50.710;7.180;2022-07-29T08:28:10;10.13;;;9.63;;
13250;SDS011;6692;50.710;7.180;2022-07-29T08:30:11;9.93;;;9.43;;
13250;SDS011;6692;50.710;7.180;2022-07-29T08:32:12;10.00;;;9.60;;
13250;SDS011;6692;50.710;7.180;2022-07-29T08:34:14;10.63;;;10.03;;
13250;SDS011;6692;50.710;7.180;2022-07-29T08:36:14;12.73;;;12.07;;
13250;SDS011;6692;50.710;7.180;2022-07-29T08:38:15;13.27;;;12.67;;
13250;SDS011;6692;50.710;7.180;2022-07-29T08:40:15;12.17;;;11.47;;
13250;SDS011;6692;50.710;7.180;2022-07-29T08:42:16;19.43;;;18.53;;
13250;SDS011;6692;50.710;7.180;2022-07-29T08:44:18;17.23;;;16.53;;
13250;SDS011;6692;50.710;7.180;2022-07-29T08:46:19;26.07;;;24.93;;
13250;SDS011;6692;50.710;7.180;2022-07-29T08:48:20;27.33;;;26.23;;
13250;SDS011;6692;50.710;7.180;2022-07-29T08:50:19;19.43;;;18.53;;
13250;SDS011;6692;50.710;7.180;2022-07-29T08:52:20;25.27;;;24.17;;
13250;SDS011;6692;50.710;7.180;2022-07-29T08:54:21;22.93;;;21.83;;
13250;SDS011;6692;50.710;7.180;2022-07-29T08:56:22;25.60;;;24.40;;
13250;SDS011;6692;50.710;7.180;2022-07-29T08:58:23;23.30;;;22.33;;
13250;SDS011;6692;50.710;7.180;2022-07-29T09:00:23;12.13;;;11.53;;
13250;SDS011;6692;50.710;7.180;2022-07-29T09:02:24;23.53;;;22.57;;
13250;SDS011;6692;50.710;7.180;2022-07-29T09:04:26;22.00;;;21.03;;
13250;SDS011;6692;50.710;7.180;2022-07-29T09:06:28;25.00;;;23.90;;
13250;SDS011;6692;50.710;7.180;2022-07-29T09:08:27;30.33;;;29.10;;
13250;SDS011;6692;50.710;7.180;2022-07-29T09:10:29;23.23;;;22.23;;
13250;SDS011;6692;50.710;7.180;2022-07-29T09:12:30;26.63;;;25.50;;
13250;SDS011;6692;50.710;7.180;2022-07-29T09:14:32;27.67;;;26.53;;
13250;SDS011;6692;50.710;7.180;2022-07-29T09:18:45;24.70;;;23.67;;
13250;SDS011;6692;50.710;7.180;2022-07-29T09:20:51;24.07;;;23.13;;
13250;SDS011;6692;50.710;7.180;2022-07-29T09:22:53;24.50;;;23.43;;
13250;SDS011;6692;50.710;7.180;2022-07-29T09:24:54;30.53;;;29.40;;
13250;SDS011;6692;50.710;7.180;2022-07-29T09:26:54;28.67;;;27.57;;
13250;SDS011;6692;50.710;7.180;2022-07-29T09:28:56;23.73;;;22.67;;
13250;SDS011;6692;50.710;7.180;2022-07-29T09:30:57;24.77;;;23.77;;
13250;SDS011;6692;50.710;7.180;2022-07-29T09:33:00;22.43;;;21.43;;
13250;SDS011;6692;50.710;7.180;2022-07-29T09:37:12;26.17;;;25.10;;
13250;SDS011;6692;50.710;7.180;2022-07-29T09:39:14;36.30;;;34.90;;
13250;SDS011;6692;50.710;7.180;2022-07-29T09:41:15;17.03;;;16.23;;
13250;SDS011;6692;50.710;7.180;2022-07-29T09:43:15;23.00;;;21.93;;
13250;SDS011;6692;50.710;7.180;2022-07-29T09:45:33;6.33;;;5.40;;
13250;SDS011;6692;50.710;7.180;2022-07-29T09:49:58;13.63;;;5.87;;
13250;SDS011;6692;50.710;7.180;2022-07-29T09:52:00;7.23;;;6.70;;
13250;SDS011;6692;50.710;7.180;2022-07-29T09:58:38;4.77;;;4.47;;
13250;SDS011;6692;50.710;7.180;2022-07-29T10:00:41;6.03;;;5.53;;
13250;SDS011;6692;50.710;7.180;2022-07-29T10:02:42;6.00;;;5.57;;
13250;SDS011;6692;50.710;7.180;2022-07-29T10:04:41;5.97;;;5.47;;
13250;SDS011;6692;50.710;7.180;2022-07-29T10:08:54;6.13;;;5.63;;
13250;SDS011;6692;50.710;7.180;2022-07-29T10:11:02;6.20;;;5.70;;
13250;SDS011;6692;50.710;7.180;2022-07-29T10:12:57;5.57;;;5.07;;
13250;SDS011;6692;50.710;7.180;2022-07-29T10:14:57;9.63;;;8.97;;
13250;SDS011;6692;50.710;7.180;2022-07-29T10:16:59;6.17;;;5.67;;
13250;SDS011;6692;50.710;7.180;2022-07-29T10:19:00;12.37;;;6.40;;
13250;SDS011;6692;50.710;7.180;2022-07-29T10:21:00;6.57;;;5.97;;
13250;SDS011;6692;50.710;7.180;2022-07-29T10:23:02;8.93;;;7.97;;
13250;SDS011;6692;50.710;7.180;2022-07-29T10:25:02;6.80;;;6.30;;
13250;SDS011;6692;50.710;7.180;2022-07-29T10:27:05;5.63;;;5.23;;
13250;SDS011;6692;50.710;7.180;2022-07-29T10:29:04;7.00;;;6.60;;
13250;SDS011;6692;50.710;7.180;2022-07-29T10:31:05;7.17;;;6.57;;
13250;SDS011;6692;50.710;7.180;2022-07-29T10:33:08;7.77;;;7.07;;
13250;SDS011;6692;50.710;7.180;2022-07-29T10:35:17;6.37;;;5.87;;
13250;SDS011;6692;50.710;7.180;2022-07-29T10:39:32;8.70;;;8.00;;
13250;SDS011;6692;50.710;7.180;2022-07-29T10:41:56;10.23;;;9.43;;
13250;SDS011;6692;50.710;7.180;2022-07-29T10:44:05;11.93;;;11.13;;
13250;SDS011;6692;50.710;7.180;2022-07-29T10:46:04;10.33;;;9.53;;
13250;SDS011;6692;50.710;7.180;2022-07-29T10:48:05;20.27;;;19.07;;
13250;SDS011;6692;50.710;7.180;2022-07-29T10:50:06;11.97;;;10.97;;
13250;SDS011;6692;50.710;7.180;2022-07-29T10:52:09;12.97;;;11.97;;
13250;SDS011;6692;50.710;7.180;2022-07-29T10:54:08;13.67;;;12.77;;
13250;SDS011;6692;50.710;7.180;2022-07-29T10:56:22;14.13;;;13.23;;
13250;SDS011;6692;50.710;7.180;2022-07-29T10:58:12;19.60;;;18.20;;
13250;SDS011;6692;50.710;7.180;2022-07-29T11:00:29;18.60;;;17.40;;
13250;SDS011;6692;50.710;7.180;2022-07-29T11:05:03;13.00;;;11.80;;
13250;SDS011;6692;50.710;7.180;2022-07-29T11:07:07;11.47;;;10.67;;
13250;SDS011;6692;50.710;7.180;2022-07-29T11:09:15;10.13;;;9.13;;
13250;SDS011;6692;50.710;7.180;2022-07-29T11:11:32;9.90;;;9.17;;
13250;SDS011;6692;50.710;7.180;2022-07-29T11:13:44;13.40;;;12.50;;
13250;SDS011;6692;50.710;7.180;2022-07-29T11:22:34;12.30;;;11.20;;
13250;SDS011;6692;50.710;7.180;2022-07-29T11:24:35;10.83;;;8.63;;
13250;SDS011;6692;50.710;7.180;2022-07-29T11:26:36;9.77;;;9.07;;
13250;SDS011;6692;50.710;7.180;2022-07-29T11:28:38;14.10;;;9.30;;
13250;SDS011;6692;50.710;7.180;2022-07-29T11:32:45;13.30;;;11.97;;
13250;SDS011;6692;50.710;7.180;2022-07-29T11:34:47;9.20;;;8.50;;
13250;SDS011;6692;50.710;7.180;2022-07-29T11:37:25;12.33;;;11.40;;
13250;SDS011;6692;50.710;7.180;2022-07-29T11:41:26;9.37;;;8.57;;
13250;SDS011;6692;50.710;7.180;2022-07-29T11:43:45;12.37;;;11.47;;
13250;SDS011;6692;50.710;7.180;2022-07-29T11:47:49;9.43;;;8.67;;
13250;SDS011;6692;50.710;7.180;2022-07-29T11:49:50;12.00;;;11.00;;
13250;SDS011;6692;50.710;7.180;2022-07-29T11:51:51;15.83;;;14.57;;
13250;SDS011;6692;50.710;7.180;2022-07-29T11:53:51;12.30;;;11.30;;
13250;SDS011;6692;50.710;7.180;2022-07-29T11:55:54;11.13;;;10.23;;
13250;SDS011;6692;50.710;7.180;2022-07-29T11:57:55;8.60;;;8.03;;
13250;SDS011;6692;50.710;7.180;2022-07-29T11:59:55;13.93;;;13.00;;
13250;SDS011;6692;50.710;7.180;2022-07-29T12:01:56;10.13;;;9.27;;
13250;SDS011;6692;50.710;7.180;2022-07-29T12:04:03;8.60;;;7.80;;
13250;SDS011;6692;50.710;7.180;2022-07-29T12:06:10;11.17;;;10.47;;
13250;SDS011;6692;50.710;7.180;2022-07-29T12:08:07;10.80;;;9.90;;
13250;SDS011;6692;50.710;7.180;2022-07-29T12:10:08;11.63;;;11.03;;
13250;SDS011;6692;50.710;7.180;2022-07-29T12:12:09;8.17;;;7.40;;
13250;SDS011;6692;50.710;7.180;2022-07-29T12:14:23;10.33;;;9.73;;
13250;SDS011;6692;50.710;7.180;2022-07-29T12:16:10;10.73;;;9.63;;
13250;SDS011;6692;50.710;7.180;2022-07-29T12:18:13;13.40;;;12.40;;
13250;SDS011;6692;50.710;7.180;2022-07-29T12:20:13;12.23;;;11.13;;
13250;SDS011;6692;50.710;7.180;2022-07-29T12:22:14;12.10;;;11.10;;
13250;SDS011;6692;50.710;7.180;2022-07-29T12:24:15;8.87;;;8.17;;
13250;SDS011;6692;50.710;7.180;2022-07-29T12:26:15;10.23;;;9.43;;
13250;SDS011;6692;50.710;7.180;2022-07-29T12:28:16;11.37;;;10.53;;
13250;SDS011;6692;50.710;7.180;2022-07-29T12:30:16;10.87;;;9.70;;
13250;SDS011;6692;50.710;7.180;2022-07-29T12:32:18;14.73;;;13.43;;
13250;SDS011;6692;50.710;7.180;2022-07-29T12:34:20;16.07;;;15.20;;
13250;SDS011;6692;50.710;7.180;2022-07-29T12:36:20;13.33;;;12.07;;
13250;SDS011;6692;50.710;7.180;2022-07-29T12:38:20;13.40;;;10.63;;
13250;SDS011;6692;50.710;7.180;2022-07-29T12:40:22;8.97;;;8.47;;
13250;SDS011;6692;50.710;7.180;2022-07-29T12:42:23;8.13;;;7.47;;